Main page
METAR-TAF:

METAR-TAF

Airports :

Kaunas, Lithuania

Kaunas Airport

latitude: 54-54N, longitude: 023-55-12E, elevation: 77 m

Current weather observation

The report was made 21 minutes ago, at 06:50 UTC
Wind 6 kt from the East, varying between East/Northeast and East/Southeast
Temperature 13°C
Humidity 77%
Pressure 1035 hPa
Visibility 10 km or more
no clouds below 1500 m and no cumulonimbus

METAR: EYKA 260650Z 09006KT 060V120 CAVOK 13/09 Q1035

Time: 10:11 (07:11 UTC)

Forecast

The report was made 2 hours and 11 minutes ago, at 05:00 UTC
Forecast valid from 26 at 06 UTC to 27 at 06 UTC
Wind 12 kt from the East
Visibility 10 km or more
no clouds below 1500 m and no cumulonimbus

TAF: EYKA 260500Z 2606/2706 09012KT CAVOK

Weather observations and forecasts of more than 4000 airports (METAR and TAF reports).

The available stations are represented by yellow and red dots on the map.

Hover mouse over dot to see the name of the station.

Then click to see weather observations and forecasts.

To change the map : click on the green buttons with a black cross to zoom in, on the green button with a dash to zoom out, or on the green arrows for adjacent maps.


METAR-TAF: